createdAt,value
2019-05-21T00:02:33.619Z,13.90
2019-05-21T00:05:16.659Z,13.90
2019-05-21T00:07:52.913Z,13.90
2019-05-21T00:10:24.937Z,13.90
2019-05-21T00:12:55.847Z,13.90
2019-05-21T00:15:26.448Z,13.90
2019-05-21T00:18:00.408Z,13.90
2019-05-21T00:20:32.677Z,13.90
2019-05-21T00:23:05.910Z,13.80
2019-05-21T00:25:41.966Z,13.80
2019-05-21T00:28:44.387Z,13.80
2019-05-21T00:31:51.241Z,13.90
2019-05-21T00:35:00.231Z,13.90
2019-05-21T00:38:07.425Z,13.90
2019-05-21T00:41:15.519Z,14.00
2019-05-21T00:44:00.482Z,14.00
2019-05-21T00:46:35.651Z,14.00
2019-05-21T00:49:24.459Z,14.00
2019-05-21T00:52:06.913Z,14.00
2019-05-21T00:54:33.897Z,14.00
2019-05-21T00:57:06.019Z,14.10
2019-05-21T00:59:38.311Z,14.10
2019-05-21T01:02:14.475Z,14.00
2019-05-21T01:05:00.345Z,14.00
2019-05-21T01:07:22.499Z,14.00
2019-05-21T01:09:55.776Z,13.90
2019-05-21T01:12:31.171Z,13.90
2019-05-21T01:15:04.368Z,13.80
2019-05-21T01:17:34.477Z,13.80
2019-05-21T01:20:05.168Z,13.70
2019-05-21T01:22:37.015Z,13.70
2019-05-21T01:25:15.553Z,13.60
2019-05-21T01:27:48.558Z,13.50
2019-05-21T01:30:18.320Z,13.50
2019-05-21T01:32:52.143Z,13.50
2019-05-21T01:35:27.103Z,13.50
2019-05-21T01:37:57.003Z,13.50
2019-05-21T01:40:29.323Z,13.50
2019-05-21T01:43:04.451Z,13.50
2019-05-21T01:45:38.033Z,13.50
2019-05-21T01:48:12.135Z,13.50
2019-05-21T01:50:49.088Z,13.40
2019-05-21T01:53:23.937Z,13.40
2019-05-21T01:55:57.734Z,13.40
2019-05-21T01:58:33.674Z,13.30
2019-05-21T02:01:08.268Z,13.30
2019-05-21T02:03:42.191Z,13.30
2019-05-21T02:06:13.737Z,13.30
2019-05-21T02:08:44.316Z,13.30
2019-05-21T02:11:15.290Z,13.20
2019-05-21T02:13:50.742Z,13.20
2019-05-21T02:16:24.627Z,13.20
2019-05-21T02:19:01.799Z,13.20
2019-05-21T02:21:38.358Z,13.10
2019-05-21T02:24:16.511Z,13.10
2019-05-21T02:26:49.763Z,13.10
2019-05-21T02:29:25.640Z,13.10
2019-05-21T02:31:59.263Z,13.20
2019-05-21T02:34:29.796Z,13.20
2019-05-21T02:37:06.406Z,13.20
2019-05-21T02:39:37.969Z,13.20
2019-05-21T02:42:08.563Z,13.20
2019-05-21T02:44:40.825Z,13.20
2019-05-21T02:47:13.031Z,13.20
2019-05-21T02:49:46.996Z,13.20
2019-05-21T02:52:22.901Z,13.20
2019-05-21T02:54:55.712Z,13.20
2019-05-21T02:57:39.019Z,13.30
2019-05-21T03:00:27.007Z,13.30
2019-05-21T03:03:01.987Z,13.40
2019-05-21T03:05:35.961Z,13.50
2019-05-21T03:08:09.930Z,13.50
2019-05-21T03:10:44.724Z,13.50
2019-05-21T03:13:20.447Z,13.50
2019-05-21T03:15:55.264Z,13.60
2019-05-21T03:18:28.964Z,13.60
2019-05-21T03:21:01.831Z,13.70
2019-05-21T03:23:35.488Z,13.70
2019-05-21T03:26:10.178Z,13.70
2019-05-21T03:28:44.095Z,13.80
2019-05-21T03:31:18.852Z,13.80
2019-05-21T03:33:52.677Z,13.90
2019-05-21T03:36:33.406Z,13.90
2019-05-21T03:38:57.232Z,13.90
2019-05-21T03:41:33.955Z,13.90
2019-05-21T03:44:07.063Z,14.00
2019-05-21T03:46:43.418Z,14.10
2019-05-21T03:49:15.550Z,14.10
2019-05-21T03:51:49.187Z,14.20
2019-05-21T03:54:25.764Z,14.20
2019-05-21T03:57:01.950Z,14.40
2019-05-21T03:59:36.803Z,14.40
2019-05-21T04:02:09.031Z,14.50
2019-05-21T04:04:41.984Z,14.50
2019-05-21T04:07:19.615Z,14.60
2019-05-21T04:09:53.972Z,14.50
2019-05-21T04:12:25.840Z,14.60
2019-05-21T04:15:04.674Z,14.50
2019-05-21T04:18:11.756Z,14.50
2019-05-21T04:20:45.604Z,14.50
2019-05-21T04:23:19.430Z,14.50
2019-05-21T04:25:52.264Z,14.60
2019-05-21T04:28:29.578Z,14.60
2019-05-21T04:31:02.628Z,14.60
2019-05-21T04:33:44.707Z,14.60
2019-05-21T04:36:18.816Z,14.60
2019-05-21T04:38:53.545Z,14.70
2019-05-21T04:41:26.563Z,14.80
2019-05-21T04:44:02.218Z,14.90
2019-05-21T04:46:33.868Z,15.00
2019-05-21T04:49:10.121Z,15.10
2019-05-21T04:51:46.120Z,15.10
2019-05-21T04:54:19.592Z,15.10
2019-05-21T04:56:55.956Z,15.20
2019-05-21T04:59:30.660Z,15.20
2019-05-21T05:02:05.605Z,15.20
2019-05-21T05:04:41.897Z,15.20
2019-05-21T05:07:26.961Z,15.20
2019-05-21T05:09:48.895Z,15.30
2019-05-21T05:12:30.895Z,15.40
2019-05-21T05:15:02.952Z,15.50
2019-05-21T05:17:34.562Z,15.60
2019-05-21T05:20:10.688Z,15.80
2019-05-21T05:22:45.184Z,16.00
2019-05-21T05:25:18.417Z,16.10
2019-05-21T05:27:51.012Z,16.20
2019-05-21T05:30:27.683Z,16.30
2019-05-21T05:33:00.616Z,16.40
2019-05-21T05:35:31.011Z,16.40
2019-05-21T05:38:01.592Z,16.40
2019-05-21T05:40:37.027Z,16.30
2019-05-21T05:43:08.715Z,16.30
2019-05-21T05:45:41.451Z,16.30
2019-05-21T05:48:14.987Z,16.40
2019-05-21T05:50:53.058Z,16.70
2019-05-21T05:53:26.213Z,16.80
2019-05-21T05:55:59.519Z,16.90
2019-05-21T05:58:31.816Z,17.00
2019-05-21T06:01:02.873Z,17.10
2019-05-21T06:03:35.210Z,17.30
2019-05-21T06:06:09.473Z,17.50
2019-05-21T06:08:43.327Z,17.60
2019-05-21T06:11:19.169Z,17.70
2019-05-21T06:13:52.904Z,17.70
2019-05-21T06:16:26.787Z,17.70
2019-05-21T06:18:57.303Z,17.90
2019-05-21T06:21:29.254Z,18.00
2019-05-21T06:24:02.531Z,17.90
2019-05-21T06:26:36.300Z,17.90
2019-05-21T06:29:12.271Z,17.80
2019-05-21T06:31:45.013Z,17.80
2019-05-21T06:34:18.692Z,17.70
2019-05-21T06:36:52.223Z,17.60
2019-05-21T06:39:26.431Z,17.70
2019-05-21T06:41:59.522Z,17.70
2019-05-21T06:44:32.465Z,17.90
2019-05-21T06:47:06.228Z,18.10
2019-05-21T06:49:42.703Z,18.20
2019-05-21T06:52:18.539Z,18.30
2019-05-21T06:54:52.498Z,18.30
2019-05-21T06:57:25.216Z,18.30
2019-05-21T06:59:59.303Z,18.20
2019-05-21T07:02:36.324Z,18.20
2019-05-21T07:05:09.374Z,18.20
2019-05-21T07:07:43.040Z,18.20
2019-05-21T07:10:17.443Z,18.20
2019-05-21T07:12:54.885Z,18.20
2019-05-21T07:15:27.379Z,18.20
2019-05-21T07:17:58.534Z,18.30
2019-05-21T07:20:30.756Z,18.30
2019-05-21T07:23:01.064Z,18.30
2019-05-21T07:25:31.427Z,18.40
2019-05-21T07:28:02.567Z,18.60
2019-05-21T07:30:35.396Z,18.80
2019-05-21T07:33:09.782Z,18.90
2019-05-21T07:35:45.484Z,19.10
2019-05-21T07:38:17.567Z,19.10
2019-05-21T07:40:49.761Z,19.30
2019-05-21T07:43:23.613Z,19.50
2019-05-21T07:45:55.963Z,19.70
2019-05-21T07:48:26.919Z,19.90
2019-05-21T07:50:56.855Z,20.00
2019-05-21T07:53:35.299Z,20.10
2019-05-21T07:56:10.859Z,20.20
2019-05-21T07:58:46.560Z,20.30
2019-05-21T08:01:20.767Z,20.50
2019-05-21T08:03:54.187Z,20.60
2019-05-21T08:06:31.691Z,20.60
2019-05-21T08:09:13.374Z,20.70
2019-05-21T08:11:41.640Z,20.70
2019-05-21T08:14:25.696Z,20.80
2019-05-21T08:16:59.111Z,21.00
2019-05-21T08:19:31.696Z,21.10
2019-05-21T08:22:02.785Z,21.10
2019-05-21T08:24:40.563Z,21.30
2019-05-21T08:27:12.251Z,21.40
2019-05-21T08:29:43.295Z,21.40
2019-05-21T08:32:18.081Z,21.50
2019-05-21T08:34:52.735Z,21.70
2019-05-21T08:37:26.535Z,21.70
2019-05-21T08:39:57.678Z,21.70
2019-05-21T08:42:27.367Z,21.90
2019-05-21T08:45:01.345Z,21.90
2019-05-21T08:47:35.362Z,22.00
2019-05-21T08:50:09.192Z,22.10
2019-05-21T08:52:43.319Z,22.20
2019-05-21T08:55:16.567Z,22.00
2019-05-21T08:58:05.011Z,21.90
2019-05-21T09:00:22.912Z,21.90
2019-05-21T09:02:57.248Z,21.90
2019-05-21T09:05:29.379Z,22.00
2019-05-21T09:08:05.207Z,22.20
2019-05-21T09:10:42.498Z,22.30
2019-05-21T09:13:18.736Z,22.40
2019-05-21T09:15:51.492Z,22.40
2019-05-21T09:18:24.230Z,22.60
2019-05-21T09:20:57.056Z,22.80
2019-05-21T09:23:31.678Z,22.90
2019-05-21T09:26:03.115Z,22.90
2019-05-21T09:28:42.278Z,22.80
2019-05-21T09:31:14.056Z,22.80
2019-05-21T09:33:46.431Z,22.80
2019-05-21T09:36:20.173Z,22.80
2019-05-21T09:38:53.607Z,22.80
2019-05-21T09:41:26.240Z,22.70
2019-05-21T09:44:00.132Z,22.70
2019-05-21T09:46:35.620Z,22.70
2019-05-21T09:49:09.749Z,22.70
2019-05-21T09:51:41.123Z,22.70
2019-05-21T09:54:15.426Z,22.70
2019-05-21T09:56:50.431Z,22.70
2019-05-21T09:59:43.261Z,22.80
2019-05-21T10:02:16.223Z,22.90
2019-05-21T10:04:47.471Z,23.00
2019-05-21T10:07:38.047Z,23.10
2019-05-21T10:09:57.601Z,23.20
2019-05-21T10:12:27.667Z,23.20
2019-05-21T10:14:58.440Z,23.20
2019-05-21T10:17:32.097Z,23.30
2019-05-21T10:20:08.387Z,23.50
2019-05-21T10:22:43.316Z,23.50
2019-05-21T10:25:16.435Z,23.60
2019-05-21T10:27:47.983Z,23.50
2019-05-21T10:30:19.229Z,23.50
2019-05-21T10:32:53.550Z,23.50
2019-05-21T10:35:27.202Z,23.40
2019-05-21T10:37:59.171Z,23.30
2019-05-21T10:40:35.306Z,23.10
2019-05-21T10:43:06.528Z,23.00
2019-05-21T10:45:39.783Z,23.00
2019-05-21T10:48:14.986Z,23.20
2019-05-21T10:50:52.665Z,23.40
2019-05-21T10:53:25.640Z,23.70
2019-05-21T10:56:00.706Z,24.00
2019-05-21T10:58:40.159Z,24.20
2019-05-21T11:01:37.822Z,24.40
2019-05-21T11:04:31.419Z,24.50
2019-05-21T11:07:02.399Z,24.60
2019-05-21T11:09:37.919Z,24.50
2019-05-21T11:12:12.129Z,24.40
2019-05-21T11:14:46.099Z,24.30
2019-05-21T11:17:17.255Z,24.10
2019-05-21T11:19:47.859Z,24.00
2019-05-21T11:22:18.202Z,24.00
2019-05-21T11:24:48.559Z,24.00
2019-05-21T11:27:22.316Z,24.20
2019-05-21T11:29:56.704Z,24.40
2019-05-21T11:32:31.942Z,24.40
2019-05-21T11:35:04.928Z,24.40
2019-05-21T11:37:40.999Z,24.40
2019-05-21T11:40:14.667Z,24.30
2019-05-21T11:42:52.819Z,24.30
2019-05-21T11:45:32.398Z,24.30
2019-05-21T11:48:00.078Z,24.30
2019-05-21T11:50:32.872Z,24.30
2019-05-21T11:53:04.111Z,24.20
2019-05-21T11:55:37.930Z,24.30
2019-05-21T11:58:12.551Z,24.40
2019-05-21T12:00:43.389Z,24.30
2019-05-21T12:03:14.923Z,24.40
2019-05-21T12:05:48.555Z,24.40
2019-05-21T12:08:21.676Z,24.40
2019-05-21T12:10:55.521Z,24.40
2019-05-21T12:13:31.272Z,24.30
2019-05-21T12:16:03.939Z,24.30
2019-05-21T12:18:40.097Z,24.30
2019-05-21T12:21:15.274Z,24.10
2019-05-21T12:23:50.962Z,23.90
2019-05-21T12:26:23.884Z,23.90
2019-05-21T12:28:57.111Z,23.80
2019-05-21T12:31:31.071Z,23.90
2019-05-21T12:34:02.151Z,23.90
2019-05-21T12:36:33.282Z,24.10
2019-05-21T12:39:13.838Z,24.20
2019-05-21T12:41:35.663Z,24.40
2019-05-21T12:44:06.949Z,24.50
2019-05-21T12:46:40.895Z,24.50
2019-05-21T12:49:18.367Z,24.50
2019-05-21T12:51:53.982Z,24.60
2019-05-21T12:54:30.559Z,24.70
2019-05-21T12:57:03.365Z,24.70
2019-05-21T12:59:36.755Z,25.00
2019-05-21T13:02:08.323Z,25.10
2019-05-21T13:04:40.800Z,25.40
2019-05-21T13:07:14.994Z,25.70
2019-05-21T13:09:53.426Z,25.80
2019-05-21T13:12:26.147Z,25.80
2019-05-21T13:14:59.970Z,26.10
2019-05-21T13:17:37.208Z,26.30
2019-05-21T13:20:07.609Z,26.40
2019-05-21T13:22:43.943Z,26.50
2019-05-21T13:25:16.963Z,26.40
2019-05-21T13:27:52.428Z,26.50
2019-05-21T13:30:25.197Z,26.30
2019-05-21T13:32:59.003Z,26.20
2019-05-21T13:35:35.618Z,26.10
2019-05-21T13:38:13.146Z,26.00
2019-05-21T13:40:41.575Z,26.10
2019-05-21T13:43:12.020Z,26.10
2019-05-21T13:45:42.672Z,26.10
2019-05-21T13:48:13.429Z,25.80
2019-05-21T13:50:46.703Z,25.70
2019-05-21T13:53:21.475Z,25.50
2019-05-21T13:55:56.353Z,25.40
2019-05-21T13:58:32.456Z,25.20
2019-05-21T14:01:05.889Z,25.20
2019-05-21T14:03:39.830Z,25.40
2019-05-21T14:06:13.471Z,25.50
2019-05-21T14:08:47.967Z,25.80
2019-05-21T14:11:22.893Z,25.70
2019-05-21T14:13:57.995Z,25.90
2019-05-21T14:16:41.092Z,25.90
2019-05-21T14:19:17.071Z,25.80
2019-05-21T14:21:53.023Z,25.70
2019-05-21T14:24:25.218Z,25.50
2019-05-21T14:26:56.238Z,25.40
2019-05-21T14:29:28.923Z,25.40
2019-05-21T14:32:04.898Z,25.30
2019-05-21T14:34:36.740Z,25.30
2019-05-21T14:37:12.319Z,25.40
2019-05-21T14:39:45.855Z,25.20
2019-05-21T14:42:21.669Z,25.00
2019-05-21T14:44:54.623Z,24.80
2019-05-21T14:47:26.283Z,24.80
2019-05-21T14:49:59.263Z,24.80
2019-05-21T14:52:28.763Z,24.80
2019-05-21T14:54:59.767Z,24.80
2019-05-21T14:57:40.108Z,24.80
2019-05-21T15:00:23.695Z,25.00
2019-05-21T15:02:56.871Z,25.00
2019-05-21T15:05:35.394Z,24.80
2019-05-21T15:08:10.479Z,24.60
2019-05-21T15:10:49.084Z,24.60
2019-05-21T15:13:22.243Z,24.50
2019-05-21T15:15:54.498Z,24.60
2019-05-21T15:18:28.490Z,24.50
2019-05-21T15:21:06.890Z,24.40
2019-05-21T15:23:43.218Z,24.30
2019-05-21T15:26:19.208Z,24.20
2019-05-21T15:28:53.703Z,24.10
2019-05-21T15:31:29.524Z,24.10
2019-05-21T15:34:03.268Z,24.30
2019-05-21T15:36:36.996Z,24.40
2019-05-21T15:39:14.370Z,24.40
2019-05-21T15:41:49.691Z,24.40
2019-05-21T15:44:23.481Z,24.20
2019-05-21T15:46:57.448Z,24.30
2019-05-21T15:49:36.420Z,24.40
2019-05-21T15:52:05.914Z,24.70
2019-05-21T15:54:39.348Z,24.90
2019-05-21T15:57:10.638Z,25.00
2019-05-21T15:59:46.756Z,25.10
2019-05-21T16:02:23.428Z,25.20
2019-05-21T16:04:54.778Z,25.50
2019-05-21T16:07:26.922Z,26.50
2019-05-21T16:09:59.732Z,27.30
2019-05-21T16:12:34.835Z,28.00
2019-05-21T16:15:10.058Z,28.70
2019-05-21T16:17:44.895Z,29.10
2019-05-21T16:20:18.634Z,29.60
2019-05-21T16:22:52.514Z,29.80
2019-05-21T16:25:26.911Z,29.50
2019-05-21T16:28:00.671Z,29.50
2019-05-21T16:30:36.448Z,29.60
2019-05-21T16:33:09.730Z,29.60
2019-05-21T16:35:43.586Z,29.40
2019-05-21T16:38:19.586Z,29.70
2019-05-21T16:40:56.741Z,29.70
2019-05-21T16:43:31.615Z,29.40
2019-05-21T16:46:05.473Z,29.70
2019-05-21T16:48:40.034Z,29.50
2019-05-21T16:51:11.846Z,29.70
2019-05-21T16:53:41.937Z,29.60
2019-05-21T16:56:11.965Z,29.40
2019-05-21T16:58:42.644Z,29.20
2019-05-21T17:01:16.408Z,28.70
2019-05-21T17:03:59.485Z,28.10
2019-05-21T17:06:27.618Z,27.70
2019-05-21T17:09:01.726Z,27.40
2019-05-21T17:11:35.871Z,26.60
2019-05-21T17:14:09.189Z,25.60
2019-05-21T17:16:45.823Z,24.80
2019-05-21T17:19:23.718Z,24.20
2019-05-21T17:21:59.181Z,23.80
2019-05-21T17:24:35.839Z,23.40
2019-05-21T17:27:07.774Z,23.10
2019-05-21T17:29:42.663Z,22.80
2019-05-21T17:32:16.528Z,22.50
2019-05-21T17:34:51.307Z,22.20
2019-05-21T17:37:24.011Z,22.10
2019-05-21T17:39:58.932Z,22.20
2019-05-21T17:42:33.567Z,22.20
2019-05-21T17:45:12.258Z,22.10
2019-05-21T17:47:44.895Z,22.00
2019-05-21T17:50:18.172Z,22.00
2019-05-21T17:52:48.611Z,22.00
2019-05-21T17:55:23.808Z,22.00
2019-05-21T17:58:01.993Z,22.20
2019-05-21T18:00:55.881Z,22.30
2019-05-21T18:03:29.607Z,22.40
2019-05-21T18:06:04.001Z,22.00
2019-05-21T18:08:36.256Z,21.70
2019-05-21T18:11:10.559Z,21.50
2019-05-21T18:13:47.979Z,21.40
2019-05-21T18:16:22.751Z,21.20
2019-05-21T18:18:57.938Z,21.00
2019-05-21T18:21:33.701Z,20.80
2019-05-21T18:24:08.447Z,20.70
2019-05-21T18:26:43.616Z,20.50
2019-05-21T18:29:16.415Z,20.30
2019-05-21T18:31:51.411Z,20.30
2019-05-21T18:34:26.382Z,20.20
2019-05-21T18:37:01.442Z,20.20
2019-05-21T18:39:36.113Z,20.10
2019-05-21T18:42:21.232Z,20.00
2019-05-21T18:44:44.327Z,20.00
2019-05-21T18:47:16.669Z,19.80
2019-05-21T18:49:47.075Z,19.70
2019-05-21T18:52:17.755Z,19.60
2019-05-21T18:54:51.407Z,19.50
2019-05-21T18:57:25.867Z,19.40
2019-05-21T18:59:59.559Z,19.30
2019-05-21T19:02:31.029Z,19.20
2019-05-21T19:05:01.592Z,19.10
2019-05-21T19:07:36.675Z,19.00
2019-05-21T19:10:08.444Z,19.00
2019-05-21T19:12:39.932Z,18.90
2019-05-21T19:15:13.437Z,18.80
2019-05-21T19:17:48.167Z,18.70
2019-05-21T19:20:21.451Z,18.60
2019-05-21T19:22:57.800Z,18.60
2019-05-21T19:25:33.859Z,18.60
2019-05-21T19:28:08.287Z,18.50
2019-05-21T19:30:43.503Z,18.50
2019-05-21T19:33:18.427Z,18.40
2019-05-21T19:35:54.305Z,18.40
2019-05-21T19:38:27.553Z,18.30
2019-05-21T19:40:58.025Z,18.20
2019-05-21T19:43:33.727Z,18.20
2019-05-21T19:46:17.433Z,18.10
2019-05-21T19:48:53.001Z,18.00
2019-05-21T19:51:22.738Z,17.90
2019-05-21T19:53:54.930Z,17.90
2019-05-21T19:56:25.624Z,17.90
2019-05-21T19:58:55.564Z,17.80
2019-05-21T20:01:31.361Z,17.80
2019-05-21T20:04:04.628Z,17.80
2019-05-21T20:06:39.184Z,17.70
2019-05-21T20:09:17.439Z,17.70
2019-05-21T20:11:49.587Z,17.70
2019-05-21T20:14:25.663Z,17.60
2019-05-21T20:17:04.585Z,17.60
2019-05-21T20:19:39.359Z,17.60
2019-05-21T20:22:15.269Z,17.60
2019-05-21T20:24:47.270Z,17.60
2019-05-21T20:27:22.313Z,17.50
2019-05-21T20:30:11.532Z,17.50
2019-05-21T20:32:34.414Z,17.50
2019-05-21T20:35:07.852Z,17.50
2019-05-21T20:37:41.930Z,17.50
2019-05-21T20:40:20.072Z,17.60
2019-05-21T20:42:56.223Z,17.50
2019-05-21T20:45:33.727Z,17.50
2019-05-21T20:48:07.447Z,17.50
2019-05-21T20:50:43.093Z,17.50
2019-05-21T20:53:16.198Z,17.50
2019-05-21T20:55:45.558Z,17.50
2019-05-21T20:58:18.754Z,17.50
2019-05-21T21:00:58.186Z,17.50
2019-05-21T21:03:35.410Z,17.50
2019-05-21T21:06:09.152Z,17.50
2019-05-21T21:08:42.888Z,17.40
2019-05-21T21:11:15.529Z,17.40
2019-05-21T21:13:48.924Z,17.40
2019-05-21T21:16:23.016Z,17.40
2019-05-21T21:18:58.551Z,17.40
2019-05-21T21:21:34.509Z,17.30
2019-05-21T21:24:08.706Z,17.30
2019-05-21T21:26:42.533Z,17.30
2019-05-21T21:29:14.655Z,17.30
2019-05-21T21:31:49.444Z,17.20
2019-05-21T21:34:27.615Z,17.20
2019-05-21T21:37:02.999Z,17.20
2019-05-21T21:39:36.247Z,17.20
2019-05-21T21:42:10.702Z,17.10
2019-05-21T21:44:50.335Z,17.10
2019-05-21T21:47:26.583Z,17.10
2019-05-21T21:50:00.209Z,17.00
2019-05-21T21:52:35.948Z,17.00
2019-05-21T21:55:12.718Z,17.00
2019-05-21T21:57:43.678Z,17.00
2019-05-21T22:00:37.988Z,17.00
2019-05-21T22:03:15.695Z,17.00
2019-05-21T22:05:52.035Z,16.90
2019-05-21T22:08:30.625Z,16.90
2019-05-21T22:11:05.888Z,16.90
2019-05-21T22:13:42.313Z,16.90
2019-05-21T22:16:13.023Z,16.90
2019-05-21T22:18:47.844Z,16.90
2019-05-21T22:21:23.071Z,16.90
2019-05-21T22:23:58.367Z,16.90
2019-05-21T22:26:30.011Z,16.90
2019-05-21T22:29:03.043Z,16.80
2019-05-21T22:31:34.344Z,16.80
2019-05-21T22:34:07.371Z,16.80
2019-05-21T22:36:40.159Z,16.80
2019-05-21T22:39:26.040Z,16.80
2019-05-21T22:42:01.046Z,16.80
2019-05-21T22:44:34.723Z,16.80
2019-05-21T22:47:09.186Z,16.80
2019-05-21T22:49:44.962Z,16.80
2019-05-21T22:52:21.784Z,16.80
2019-05-21T22:54:58.117Z,16.80
2019-05-21T22:57:34.059Z,16.80
2019-05-21T23:00:07.238Z,16.80
2019-05-21T23:02:42.900Z,16.80
2019-05-21T23:05:17.983Z,16.80
2019-05-21T23:07:52.820Z,16.80
2019-05-21T23:10:29.407Z,16.80
2019-05-21T23:13:03.394Z,16.80
2019-05-21T23:15:37.159Z,16.80
2019-05-21T23:18:09.060Z,16.80
2019-05-21T23:20:43.967Z,16.80
2019-05-21T23:23:17.923Z,16.80
2019-05-21T23:25:50.371Z,16.80
2019-05-21T23:28:23.428Z,16.80
2019-05-21T23:31:00.019Z,16.80
2019-05-21T23:33:31.959Z,16.70
2019-05-21T23:36:05.055Z,16.70
2019-05-21T23:38:38.116Z,16.70
2019-05-21T23:41:10.783Z,16.70
2019-05-21T23:43:43.988Z,16.70
2019-05-21T23:46:22.975Z,16.70
2019-05-21T23:49:03.903Z,16.60
2019-05-21T23:51:41.961Z,16.60
2019-05-21T23:54:15.871Z,16.60
2019-05-21T23:56:53.029Z,16.60
2019-05-21T23:59:26.783Z,16.60
